sensor_id;sensor_type;location;lat;lon;timestamp;P1;durP1;ratioP1;P2;durP2;ratioP2
12072;SDS011;6098;49.004;8.372;2022-08-14T00:00:39;2.90;;;2.70;;
12072;SDS011;6098;49.004;8.372;2022-08-14T00:15:33;3.03;;;2.83;;
12072;SDS011;6098;49.004;8.372;2022-08-14T00:30:23;3.41;;;3.11;;
12072;SDS011;6098;49.004;8.372;2022-08-14T00:45:14;3.01;;;2.61;;
12072;SDS011;6098;49.004;8.372;2022-08-14T01:00:11;3.25;;;2.97;;
12072;SDS011;6098;49.004;8.372;2022-08-14T01:15:02;3.44;;;2.94;;
12072;SDS011;6098;49.004;8.372;2022-08-14T01:29:54;3.19;;;2.66;;
12072;SDS011;6098;49.004;8.372;2022-08-14T01:44:45;2.96;;;2.76;;
12072;SDS011;6098;49.004;8.372;2022-08-14T01:59:37;4.37;;;2.90;;
12072;SDS011;6098;49.004;8.372;2022-08-14T02:14:30;3.44;;;3.12;;
12072;SDS011;6098;49.004;8.372;2022-08-14T02:29:22;3.30;;;3.10;;
12072;SDS011;6098;49.004;8.372;2022-08-14T02:44:11;3.19;;;2.83;;
12072;SDS011;6098;49.004;8.372;2022-08-14T02:59:03;3.22;;;2.92;;
12072;SDS011;6098;49.004;8.372;2022-08-14T03:13:54;3.08;;;2.87;;
12072;SDS011;6098;49.004;8.372;2022-08-14T03:28:46;3.17;;;2.87;;
12072;SDS011;6098;49.004;8.372;2022-08-14T03:43:35;3.65;;;3.29;;
12072;SDS011;6098;49.004;8.372;2022-08-14T03:58:27;4.09;;;3.30;;
12072;SDS011;6098;49.004;8.372;2022-08-14T04:13:18;3.28;;;2.98;;
12072;SDS011;6098;49.004;8.372;2022-08-14T04:28:09;3.49;;;3.22;;
12072;SDS011;6098;49.004;8.372;2022-08-14T04:43:00;4.72;;;2.81;;
12072;SDS011;6098;49.004;8.372;2022-08-14T04:58:16;3.44;;;3.03;;
12072;SDS011;6098;49.004;8.372;2022-08-14T05:13:12;5.47;;;3.47;;
12072;SDS011;6098;49.004;8.372;2022-08-14T05:43:06;4.22;;;3.29;;
12072;SDS011;6098;49.004;8.372;2022-08-14T05:58:00;4.97;;;3.20;;
12072;SDS011;6098;49.004;8.372;2022-08-14T06:12:51;5.12;;;3.72;;
12072;SDS011;6098;49.004;8.372;2022-08-14T06:27:44;3.70;;;3.40;;
12072;SDS011;6098;49.004;8.372;2022-08-14T06:42:36;4.10;;;3.39;;
12072;SDS011;6098;49.004;8.372;2022-08-14T07:12:31;4.41;;;3.99;;
12072;SDS011;6098;49.004;8.372;2022-08-14T07:27:24;4.14;;;3.80;;
12072;SDS011;6098;49.004;8.372;2022-08-14T07:42:16;4.30;;;3.91;;
12072;SDS011;6098;49.004;8.372;2022-08-14T07:57:09;4.78;;;3.55;;
12072;SDS011;6098;49.004;8.372;2022-08-14T08:12:03;4.32;;;3.66;;
12072;SDS011;6098;49.004;8.372;2022-08-14T08:27:12;5.12;;;3.44;;
12072;SDS011;6098;49.004;8.372;2022-08-14T08:41:55;4.16;;;3.42;;
12072;SDS011;6098;49.004;8.372;2022-08-14T08:56:49;4.94;;;2.88;;
12072;SDS011;6098;49.004;8.372;2022-08-14T09:11:41;3.31;;;2.61;;
12072;SDS011;6098;49.004;8.372;2022-08-14T09:26:36;4.30;;;2.81;;
12072;SDS011;6098;49.004;8.372;2022-08-14T09:41:53;2.61;;;2.41;;
12072;SDS011;6098;49.004;8.372;2022-08-14T09:56:47;3.02;;;2.64;;
12072;SDS011;6098;49.004;8.372;2022-08-14T10:11:40;4.91;;;3.04;;
12072;SDS011;6098;49.004;8.372;2022-08-14T10:26:31;2.97;;;2.70;;
12072;SDS011;6098;49.004;8.372;2022-08-14T10:41:33;4.98;;;3.14;;
12072;SDS011;6098;49.004;8.372;2022-08-14T10:56:28;3.71;;;2.96;;
12072;SDS011;6098;49.004;8.372;2022-08-14T11:11:12;2.90;;;2.70;;
12072;SDS011;6098;49.004;8.372;2022-08-14T11:26:06;3.50;;;2.94;;
12072;SDS011;6098;49.004;8.372;2022-08-14T11:40:58;2.61;;;2.41;;
12072;SDS011;6098;49.004;8.372;2022-08-14T11:55:54;2.80;;;2.19;;
12072;SDS011;6098;49.004;8.372;2022-08-14T12:10:47;2.76;;;2.56;;
12072;SDS011;6098;49.004;8.372;2022-08-14T12:25:40;3.89;;;2.10;;
12072;SDS011;6098;49.004;8.372;2022-08-14T12:40:33;3.01;;;2.24;;
12072;SDS011;6098;49.004;8.372;2022-08-14T12:55:26;2.06;;;1.96;;
12072;SDS011;6098;49.004;8.372;2022-08-14T13:10:20;2.56;;;2.28;;
12072;SDS011;6098;49.004;8.372;2022-08-14T13:25:14;2.58;;;2.32;;
12072;SDS011;6098;49.004;8.372;2022-08-14T13:40:06;2.90;;;2.34;;
12072;SDS011;6098;49.004;8.372;2022-08-14T13:55:00;2.73;;;2.17;;
12072;SDS011;6098;49.004;8.372;2022-08-14T14:09:51;4.11;;;2.66;;
12072;SDS011;6098;49.004;8.372;2022-08-14T14:24:44;3.23;;;2.60;;
12072;SDS011;6098;49.004;8.372;2022-08-14T14:39:37;3.50;;;2.24;;
12072;SDS011;6098;49.004;8.372;2022-08-14T14:54:28;2.27;;;2.07;;
12072;SDS011;6098;49.004;8.372;2022-08-14T15:09:36;3.14;;;2.86;;
12072;SDS011;6098;49.004;8.372;2022-08-14T15:24:27;3.34;;;3.02;;
12072;SDS011;6098;49.004;8.372;2022-08-14T15:39:17;3.43;;;2.78;;
12072;SDS011;6098;49.004;8.372;2022-08-14T15:54:09;2.96;;;2.74;;
12072;SDS011;6098;49.004;8.372;2022-08-14T16:09:02;3.80;;;2.79;;
12072;SDS011;6098;49.004;8.372;2022-08-14T16:23:54;5.03;;;2.92;;
12072;SDS011;6098;49.004;8.372;2022-08-14T16:38:45;4.81;;;4.13;;
12072;SDS011;6098;49.004;8.372;2022-08-14T16:53:39;3.50;;;3.18;;
12072;SDS011;6098;49.004;8.372;2022-08-14T17:08:32;6.50;;;3.52;;
12072;SDS011;6098;49.004;8.372;2022-08-14T17:23:24;3.31;;;2.49;;
12072;SDS011;6098;49.004;8.372;2022-08-14T17:38:16;3.89;;;2.91;;
12072;SDS011;6098;49.004;8.372;2022-08-14T17:53:08;6.42;;;4.39;;
12072;SDS011;6098;49.004;8.372;2022-08-14T18:07:58;5.24;;;4.10;;
12072;SDS011;6098;49.004;8.372;2022-08-14T18:22:51;5.84;;;4.20;;
12072;SDS011;6098;49.004;8.372;2022-08-14T18:37:42;7.74;;;3.91;;
12072;SDS011;6098;49.004;8.372;2022-08-14T19:07:27;6.29;;;3.56;;
12072;SDS011;6098;49.004;8.372;2022-08-14T19:22:27;5.13;;;3.33;;
12072;SDS011;6098;49.004;8.372;2022-08-14T19:37:11;5.13;;;4.26;;
12072;SDS011;6098;49.004;8.372;2022-08-14T19:52:01;5.33;;;3.90;;
12072;SDS011;6098;49.004;8.372;2022-08-14T20:06:54;5.14;;;3.24;;
12072;SDS011;6098;49.004;8.372;2022-08-14T20:21:45;4.01;;;3.10;;
12072;SDS011;6098;49.004;8.372;2022-08-14T20:36:36;6.81;;;3.68;;
12072;SDS011;6098;49.004;8.372;2022-08-14T21:06:44;5.33;;;3.80;;
12072;SDS011;6098;49.004;8.372;2022-08-14T21:21:36;6.84;;;3.50;;
12072;SDS011;6098;49.004;8.372;2022-08-14T21:36:27;5.03;;;3.51;;
12072;SDS011;6098;49.004;8.372;2022-08-14T21:51:18;6.42;;;3.62;;
12072;SDS011;6098;49.004;8.372;2022-08-14T22:06:11;4.93;;;3.77;;
12072;SDS011;6098;49.004;8.372;2022-08-14T22:21:02;5.21;;;3.59;;
12072;SDS011;6098;49.004;8.372;2022-08-14T22:35:53;8.56;;;3.96;;
12072;SDS011;6098;49.004;8.372;2022-08-14T22:50:45;5.93;;;3.84;;
12072;SDS011;6098;49.004;8.372;2022-08-14T23:05:40;5.50;;;4.18;;
12072;SDS011;6098;49.004;8.372;2022-08-14T23:20:34;5.31;;;3.92;;
12072;SDS011;6098;49.004;8.372;2022-08-14T23:35:29;7.72;;;3.90;;
12072;SDS011;6098;49.004;8.372;2022-08-14T23:50:20;6.45;;;3.81;;
